createdAt,value
2018-07-19T00:00:43.494Z,0
2018-07-19T00:01:43.465Z,0
2018-07-19T00:02:44.598Z,0
2018-07-19T00:03:43.473Z,0
2018-07-19T00:04:43.472Z,0
2018-07-19T00:05:43.211Z,0
2018-07-19T00:06:44.197Z,0
2018-07-19T00:07:43.455Z,0
2018-07-19T00:08:43.454Z,0
2018-07-19T00:09:44.895Z,0
2018-07-19T00:10:43.438Z,0
2018-07-19T00:11:43.446Z,0
2018-07-19T00:12:45.127Z,0
2018-07-19T00:13:43.450Z,0
2018-07-19T00:14:43.445Z,0
2018-07-19T00:15:43.184Z,0
2018-07-19T00:16:44.110Z,0
2018-07-19T00:17:43.424Z,0
2018-07-19T00:18:42.897Z,0
2018-07-19T00:19:44.015Z,0
2018-07-19T00:20:43.406Z,0
2018-07-19T00:21:43.416Z,0
2018-07-19T00:22:42.877Z,0
2018-07-19T00:23:44.125Z,0
2018-07-19T00:24:43.432Z,0
2018-07-19T00:25:43.397Z,0
2018-07-19T00:26:43.399Z,0
2018-07-19T00:27:44.851Z,0
2018-07-19T00:28:43.410Z,0
2018-07-19T00:29:42.866Z,0
2018-07-19T00:30:43.423Z,0
2018-07-19T00:31:45.030Z,0
2018-07-19T00:32:43.371Z,0
2018-07-19T00:33:43.361Z,0
2018-07-19T00:34:43.702Z,0
2018-07-19T00:35:43.128Z,0
2018-07-19T00:36:43.366Z,0
2018-07-19T00:37:43.094Z,0
2018-07-19T00:38:44.670Z,0
2018-07-19T00:39:43.077Z,0
2018-07-19T00:40:43.353Z,0
2018-07-19T00:41:43.099Z,0
2018-07-19T00:42:44.576Z,0
2018-07-19T00:43:43.330Z,0
2018-07-19T00:44:43.330Z,0
2018-07-19T00:45:45.009Z,0
2018-07-19T00:46:43.332Z,0
2018-07-19T00:47:43.060Z,0
2018-07-19T00:48:43.320Z,0
2018-07-19T00:49:44.130Z,0
2018-07-19T00:50:43.042Z,0
2018-07-19T00:51:43.287Z,0
2018-07-19T00:52:43.309Z,0
2018-07-19T00:53:44.921Z,0
2018-07-19T00:54:43.284Z,0
2018-07-19T00:55:43.294Z,0
2018-07-19T00:56:43.298Z,0
2018-07-19T00:57:44.883Z,0
2018-07-19T00:58:43.018Z,0
2018-07-19T00:59:43.278Z,0
2018-07-19T01:00:43.784Z,0
2018-07-19T01:01:43.535Z,0
2018-07-19T01:02:43.268Z,0
2018-07-19T01:03:43.029Z,0
2018-07-19T01:04:44.201Z,0
2018-07-19T01:05:42.997Z,0
2018-07-19T01:06:43.259Z,0
2018-07-19T01:07:43.257Z,0
2018-07-19T01:08:44.087Z,0
2018-07-19T01:09:43.239Z,0
2018-07-19T01:10:43.232Z,0
2018-07-19T01:11:44.046Z,0
2018-07-19T01:12:42.967Z,0
2018-07-19T01:13:42.969Z,0
2018-07-19T01:14:42.973Z,0
2018-07-19T01:15:44.861Z,0
2018-07-19T01:16:43.234Z,0
2018-07-19T01:17:42.727Z,0
2018-07-19T01:18:43.691Z,0
2018-07-19T01:19:43.213Z,0
2018-07-19T01:20:43.300Z,0
2018-07-19T01:21:44.118Z,0
2018-07-19T01:22:43.185Z,0
2018-07-19T01:23:43.179Z,0
2018-07-19T01:24:44.351Z,0
2018-07-19T01:25:43.184Z,0
2018-07-19T01:26:43.176Z,0
2018-07-19T01:27:43.704Z,0
2018-07-19T01:28:43.209Z,0
2018-07-19T01:29:42.928Z,0
2018-07-19T01:30:42.902Z,0
2018-07-19T01:31:43.358Z,0
2018-07-19T01:32:43.163Z,0
2018-07-19T01:33:42.888Z,0
2018-07-19T01:34:42.907Z,0
2018-07-19T01:35:43.152Z,0
2018-07-19T01:36:43.746Z,0
2018-07-19T01:37:42.623Z,0
2018-07-19T01:38:43.137Z,0
2018-07-19T01:39:43.126Z,0
2018-07-19T01:40:43.817Z,0
2018-07-19T01:41:42.851Z,0
2018-07-19T01:42:43.135Z,0
2018-07-19T01:43:43.801Z,0
2018-07-19T01:44:43.128Z,0
2018-07-19T01:45:43.125Z,0
2018-07-19T01:46:43.847Z,0
2018-07-19T01:47:43.094Z,0
2018-07-19T01:48:43.086Z,0
2018-07-19T01:49:44.385Z,0
2018-07-19T01:50:43.093Z,0
2018-07-19T01:51:43.068Z,0
2018-07-19T01:52:44.955Z,0
2018-07-19T01:53:43.068Z,0
2018-07-19T01:54:43.076Z,0
2018-07-19T01:55:43.854Z,0
2018-07-19T01:56:42.803Z,0
2018-07-19T01:57:43.068Z,0
2018-07-19T01:58:43.603Z,0
2018-07-19T01:59:43.089Z,0
2018-07-19T02:00:43.079Z,0
2018-07-19T02:01:43.055Z,0
2018-07-19T02:02:44.126Z,0
2018-07-19T02:03:43.025Z,0
2018-07-19T02:04:43.036Z,0
2018-07-19T02:05:44.436Z,0
2018-07-19T02:06:43.040Z,0
2018-07-19T02:07:42.496Z,0
2018-07-19T02:08:42.942Z,0
2018-07-19T02:09:42.748Z,0
2018-07-19T02:10:43.002Z,0
2018-07-19T02:11:43.825Z,0
2018-07-19T02:12:43.012Z,0
2018-07-19T02:13:42.995Z,0
2018-07-19T02:14:42.982Z,0
2018-07-19T02:15:43.573Z,0
2018-07-19T02:16:42.461Z,0
2018-07-19T02:17:42.984Z,0
2018-07-19T02:18:44.103Z,0
2018-07-19T02:19:42.705Z,4
2018-07-19T02:20:42.966Z,4
2018-07-19T02:21:43.408Z,4
2018-07-19T02:22:42.694Z,0
2018-07-19T02:23:42.708Z,4
2018-07-19T02:24:44.820Z,4
2018-07-19T02:25:42.963Z,4
2018-07-19T02:26:42.943Z,4
2018-07-19T02:27:44.572Z,4
2018-07-19T02:28:42.945Z,4
2018-07-19T02:29:42.931Z,8
2018-07-19T02:30:43.685Z,4
2018-07-19T02:31:42.674Z,8
2018-07-19T02:32:42.968Z,8
2018-07-19T02:33:43.691Z,12
2018-07-19T02:34:42.933Z,12
2018-07-19T02:35:42.912Z,12
2018-07-19T02:36:42.889Z,16
2018-07-19T02:37:43.432Z,16
2018-07-19T02:38:42.903Z,20
2018-07-19T02:39:42.638Z,20
2018-07-19T02:40:44.486Z,24
2018-07-19T02:41:42.899Z,24
2018-07-19T02:42:42.891Z,32
2018-07-19T02:43:44.245Z,32
2018-07-19T02:44:42.619Z,36
2018-07-19T02:45:42.892Z,40
2018-07-19T02:46:44.392Z,44
2018-07-19T02:47:42.592Z,52
2018-07-19T02:48:42.596Z,56
2018-07-19T02:49:42.862Z,64
2018-07-19T02:50:43.854Z,72
2018-07-19T02:51:42.853Z,80
2018-07-19T02:52:42.834Z,84
2018-07-19T02:53:44.257Z,92
2018-07-19T02:54:42.321Z,104
2018-07-19T02:55:42.831Z,112
2018-07-19T02:56:43.611Z,124
2018-07-19T02:57:42.550Z,136
2018-07-19T02:58:42.567Z,148
2018-07-19T02:59:43.380Z,160
2018-07-19T03:00:42.546Z,172
2018-07-19T03:01:42.276Z,188
2018-07-19T03:02:42.544Z,204
2018-07-19T03:03:43.708Z,220
2018-07-19T03:04:42.799Z,236
2018-07-19T03:05:42.774Z,252
2018-07-19T03:06:44.034Z,272
2018-07-19T03:07:42.672Z,292
2018-07-19T03:08:42.787Z,312
2018-07-19T03:09:43.759Z,336
2018-07-19T03:10:42.507Z,360
2018-07-19T03:11:42.513Z,384
2018-07-19T03:12:42.227Z,416
2018-07-19T03:13:43.697Z,448
2018-07-19T03:14:42.753Z,476
2018-07-19T03:15:42.756Z,508
2018-07-19T03:16:43.669Z,544
2018-07-19T03:17:43.956Z,580
2018-07-19T03:18:42.476Z,616
2018-07-19T03:19:43.491Z,656
2018-07-19T03:20:42.720Z,696
2018-07-19T03:21:42.454Z,732
2018-07-19T03:22:43.804Z,772
2018-07-19T03:23:42.702Z,816
2018-07-19T03:24:42.704Z,864
2018-07-19T03:25:42.709Z,916
2018-07-19T03:26:42.170Z,960
2018-07-19T03:27:42.697Z,996
2018-07-19T03:28:42.740Z,1032
2018-07-19T03:29:43.959Z,1068
2018-07-19T03:30:42.703Z,1112
2018-07-19T03:31:42.688Z,1156
2018-07-19T03:32:43.951Z,1200
2018-07-19T03:33:42.402Z,1240
2018-07-19T03:34:42.399Z,1276
2018-07-19T03:35:43.257Z,1312
2018-07-19T03:36:42.665Z,1344
2018-07-19T03:37:42.663Z,1372
2018-07-19T03:38:43.582Z,1396
2018-07-19T03:39:42.674Z,1412
2018-07-19T03:40:42.373Z,1456
2018-07-19T03:41:42.128Z,1508
2018-07-19T03:42:43.077Z,1556
2018-07-19T03:43:42.640Z,1600
2018-07-19T03:44:42.642Z,1656
2018-07-19T03:45:43.580Z,1712
2018-07-19T03:46:42.635Z,1776
2018-07-19T03:47:42.652Z,1848
2018-07-19T03:48:44.371Z,1924
2018-07-19T03:49:42.616Z,2012
2018-07-19T03:50:42.871Z,2116
2018-07-19T03:51:44.072Z,2232
2018-07-19T03:52:42.644Z,2336
2018-07-19T03:53:42.594Z,2440
2018-07-19T03:54:44.188Z,2528
2018-07-19T03:55:42.568Z,2612
2018-07-19T03:56:42.576Z,2756
2018-07-19T03:57:43.273Z,3004
2018-07-19T03:58:42.573Z,3216
2018-07-19T03:59:42.567Z,3412
2018-07-19T04:00:43.049Z,3656
2018-07-19T04:01:42.549Z,3860
2018-07-19T04:02:42.553Z,4172
2018-07-19T04:03:43.203Z,4520
2018-07-19T04:04:42.965Z,4848
2018-07-19T04:05:42.542Z,5108
2018-07-19T04:06:42.533Z,5292
2018-07-19T04:07:43.938Z,5452
2018-07-19T04:08:42.538Z,5624
2018-07-19T04:09:42.530Z,5852
2018-07-19T04:10:44.100Z,6080
2018-07-19T04:11:42.521Z,6296
2018-07-19T04:12:42.266Z,6528
2018-07-19T04:13:42.535Z,6788
2018-07-19T04:14:42.939Z,6936
2018-07-19T04:15:42.513Z,7100
2018-07-19T04:16:42.504Z,7108
2018-07-19T04:17:44.105Z,7148
2018-07-19T04:18:42.495Z,7524
2018-07-19T04:19:42.522Z,7648
2018-07-19T04:20:41.980Z,7704
2018-07-19T04:21:43.604Z,8228
2018-07-19T04:22:42.497Z,8360
2018-07-19T04:23:42.494Z,7864
2018-07-19T04:24:42.933Z,7392
2018-07-19T04:25:42.500Z,8196
2018-07-19T04:26:42.240Z,9160
2018-07-19T04:27:42.684Z,9540
2018-07-19T04:28:42.250Z,9728
2018-07-19T04:29:42.493Z,10272
2018-07-19T04:30:42.223Z,10264
2018-07-19T04:31:43.307Z,10364
2018-07-19T04:32:42.225Z,10956
2018-07-19T04:33:42.490Z,11032
2018-07-19T04:34:42.503Z,11360
2018-07-19T04:35:43.180Z,11724
2018-07-19T04:36:42.229Z,11592
2018-07-19T04:37:42.484Z,11116
2018-07-19T04:38:43.196Z,11472
2018-07-19T04:39:41.966Z,11824
2018-07-19T04:40:42.514Z,10900
2018-07-19T04:41:42.735Z,11008
2018-07-19T04:42:42.496Z,11636
2018-07-19T04:43:42.525Z,11272
2018-07-19T04:44:42.518Z,10492
2018-07-19T04:45:43.027Z,11760
2018-07-19T04:46:42.497Z,12036
2018-07-19T04:47:42.515Z,12656
2018-07-19T04:48:43.077Z,14176
2018-07-19T04:49:41.990Z,14720
2018-07-19T04:50:42.262Z,14464
2018-07-19T04:51:43.175Z,14816
2018-07-19T04:52:42.528Z,15552
2018-07-19T04:53:42.281Z,17024
2018-07-19T04:54:42.869Z,16416
2018-07-19T04:55:43.297Z,16544
2018-07-19T04:56:42.553Z,17632
2018-07-19T04:57:42.550Z,15296
2018-07-19T04:58:44.294Z,16320
2018-07-19T04:59:42.577Z,17376
2018-07-19T05:00:42.564Z,17888
2018-07-19T05:01:42.435Z,17376
2018-07-19T05:02:42.967Z,19200
2018-07-19T05:03:42.580Z,19840
2018-07-19T05:04:42.321Z,19104
2018-07-19T05:05:44.088Z,19168
2018-07-19T05:06:42.597Z,20960
2018-07-19T05:07:42.341Z,20288
2018-07-19T05:08:42.627Z,20480
2018-07-19T05:09:43.611Z,21856
2018-07-19T05:10:42.640Z,21600
2018-07-19T05:11:42.358Z,17792
2018-07-19T05:12:43.952Z,18432
2018-07-19T05:13:42.635Z,15276
2018-07-19T05:14:42.664Z,16576
2018-07-19T05:15:43.028Z,15904
2018-07-19T05:16:43.202Z,23840
2018-07-19T05:17:42.664Z,24320
2018-07-19T05:18:42.425Z,23808
2018-07-19T05:19:43.523Z,22176
2018-07-19T05:20:42.707Z,22016
2018-07-19T05:21:42.444Z,21664
2018-07-19T05:22:42.721Z,23456
2018-07-19T05:23:43.897Z,23168
2018-07-19T05:24:42.710Z,23232
2018-07-19T05:25:42.737Z,24480
2018-07-19T05:26:43.117Z,23296
2018-07-19T05:27:42.775Z,23424
2018-07-19T05:28:42.487Z,25248
2018-07-19T05:29:42.762Z,26240
2018-07-19T05:30:43.905Z,24800
2018-07-19T05:31:42.781Z,25472
2018-07-19T05:32:42.805Z,22336
2018-07-19T05:33:44.098Z,21664
2018-07-19T05:34:42.980Z,14224
2018-07-19T05:35:42.825Z,28384
2018-07-19T05:36:42.830Z,23552
2018-07-19T05:37:43.817Z,23808
2018-07-19T05:38:42.586Z,23552
2018-07-19T05:39:42.583Z,20896
2018-07-19T05:40:43.748Z,25728
2018-07-19T05:41:43.083Z,18016
2018-07-19T05:42:42.643Z,18784
2018-07-19T05:43:42.896Z,36192
2018-07-19T05:44:44.776Z,33088
2018-07-19T05:45:42.887Z,30656
2018-07-19T05:46:42.374Z,16736
2018-07-19T05:47:43.321Z,17888
2018-07-19T05:48:44.469Z,22176
2018-07-19T05:49:42.981Z,40832
2018-07-19T05:50:42.960Z,28416
2018-07-19T05:51:43.649Z,18720
2018-07-19T05:52:42.694Z,19136
2018-07-19T05:53:42.978Z,32160
2018-07-19T05:54:42.719Z,40736
2018-07-19T05:55:43.127Z,36640
2018-07-19T05:56:42.737Z,34592
2018-07-19T05:57:42.993Z,34048
2018-07-19T05:58:44.499Z,30080
2018-07-19T05:59:42.794Z,35552
2018-07-19T06:00:42.763Z,33824
2018-07-19T06:01:44.175Z,36576
2018-07-19T06:02:43.046Z,20512
2018-07-19T06:03:42.799Z,17952
2018-07-19T06:04:43.285Z,35840
2018-07-19T06:05:43.079Z,36800
2018-07-19T06:06:43.334Z,19360
2018-07-19T06:07:44.737Z,23616
2018-07-19T06:08:43.123Z,17664
2018-07-19T06:09:43.477Z,18400
2018-07-19T06:10:43.126Z,18464
2018-07-19T06:11:44.008Z,16480
2018-07-19T06:12:43.134Z,13900
2018-07-19T06:13:43.150Z,14656
2018-07-19T06:14:43.176Z,17408
2018-07-19T06:15:44.342Z,15076
2018-07-19T06:16:43.171Z,14228
2018-07-19T06:17:42.910Z,15024
2018-07-19T06:18:43.616Z,15044
2018-07-19T06:19:44.700Z,19648
2018-07-19T06:20:43.238Z,18912
2018-07-19T06:21:43.267Z,18720
2018-07-19T06:22:44.706Z,23392
2018-07-19T06:23:42.989Z,46240
2018-07-19T06:24:43.245Z,36000
2018-07-19T06:25:44.831Z,30400
2018-07-19T06:26:43.305Z,33984
2018-07-19T06:27:43.267Z,38720
2018-07-19T06:28:44.744Z,28320
2018-07-19T06:29:43.299Z,41760
2018-07-19T06:30:43.037Z,26432
2018-07-19T06:31:44.053Z,24704
2018-07-19T06:32:43.758Z,22752
2018-07-19T06:33:43.082Z,19680
2018-07-19T06:34:43.328Z,20384
2018-07-19T06:35:43.337Z,18912
2018-07-19T06:36:43.876Z,17280
2018-07-19T06:37:43.077Z,18432
2018-07-19T06:38:43.072Z,22592
2018-07-19T06:39:43.970Z,28896
2018-07-19T06:40:43.371Z,31072
2018-07-19T06:41:43.359Z,27136
2018-07-19T06:42:43.578Z,28704
2018-07-19T06:43:43.391Z,23584
2018-07-19T06:44:43.385Z,24992
2018-07-19T06:45:43.366Z,18720
2018-07-19T06:46:44.442Z,18016
2018-07-19T06:47:43.388Z,23264
2018-07-19T06:48:43.125Z,29312
2018-07-19T06:49:44.174Z,23392
2018-07-19T06:50:43.407Z,45824
2018-07-19T06:51:43.429Z,69408
2018-07-19T06:52:44.653Z,19744
2018-07-19T06:53:43.421Z,24480
2018-07-19T06:54:43.462Z,23008
2018-07-19T06:55:44.762Z,56352
2018-07-19T06:56:43.445Z,62784
2018-07-19T06:57:43.527Z,55712
2018-07-19T06:58:44.848Z,26912
2018-07-19T06:59:43.484Z,33024
2018-07-19T07:00:43.478Z,36672
2018-07-19T07:01:43.969Z,47808
2018-07-19T07:02:43.225Z,31808
2018-07-19T07:03:44.270Z,46080
2018-07-19T07:04:43.530Z,18400
2018-07-19T07:05:44.245Z,17792
2018-07-19T07:06:43.271Z,22720
2018-07-19T07:07:43.264Z,20256
2018-07-19T07:08:44.315Z,14140
2018-07-19T07:09:43.285Z,15012
2018-07-19T07:10:43.552Z,17312
2018-07-19T07:11:45.121Z,17696
2018-07-19T07:12:43.290Z,15852
2018-07-19T07:13:43.312Z,13748
2018-07-19T07:14:44.517Z,14440
2018-07-19T07:15:43.590Z,13776
2018-07-19T07:16:43.608Z,13908
2018-07-19T07:17:44.803Z,12884
2018-07-19T07:18:43.328Z,11372
2018-07-19T07:19:43.330Z,11488
2018-07-19T07:20:44.080Z,12128
2018-07-19T07:21:43.075Z,15268
2018-07-19T07:22:43.619Z,17728
2018-07-19T07:23:43.080Z,17824
2018-07-19T07:24:44.860Z,16224
2018-07-19T07:25:43.100Z,16992
2018-07-19T07:26:43.383Z,18368
2018-07-19T07:27:45.093Z,16160
2018-07-19T07:28:43.642Z,15348
2018-07-19T07:29:43.384Z,14836
2018-07-19T07:30:45.049Z,15080
2018-07-19T07:31:43.642Z,15108
2018-07-19T07:32:43.636Z,14336
2018-07-19T07:33:45.502Z,13520
2018-07-19T07:34:43.911Z,12628
2018-07-19T07:35:43.714Z,10904
2018-07-19T07:36:43.603Z,10776
2018-07-19T07:37:43.711Z,10520
2018-07-19T07:38:43.724Z,10264
2018-07-19T07:39:45.135Z,9636
2018-07-19T07:40:43.734Z,9192
2018-07-19T07:41:43.452Z,9204
2018-07-19T07:42:44.378Z,10016
2018-07-19T07:43:43.435Z,10872
2018-07-19T07:44:43.745Z,11464
2018-07-19T07:45:44.744Z,11840
2018-07-19T07:46:43.716Z,11888
2018-07-19T07:47:43.697Z,12432
2018-07-19T07:48:44.213Z,13548
2018-07-19T07:49:44.357Z,14932
2018-07-19T07:50:43.687Z,16480
2018-07-19T07:51:43.464Z,16960
2018-07-19T07:52:44.705Z,17216
2018-07-19T07:53:43.708Z,18336
2018-07-19T07:54:43.442Z,20256
2018-07-19T07:55:45.229Z,22112
2018-07-19T07:56:43.703Z,22784
2018-07-19T07:57:43.727Z,23264
2018-07-19T07:58:44.018Z,24192
2018-07-19T07:59:43.461Z,24672
2018-07-19T08:00:43.725Z,24096
2018-07-19T08:01:43.716Z,23264
2018-07-19T08:02:45.092Z,19488
2018-07-19T08:03:43.462Z,18432
2018-07-19T08:04:43.727Z,15392
2018-07-19T08:05:44.772Z,13688
2018-07-19T08:06:43.739Z,12864
2018-07-19T08:07:43.723Z,12688
2018-07-19T08:08:44.572Z,13396
2018-07-19T08:09:43.483Z,13984
2018-07-19T08:10:43.739Z,13312
2018-07-19T08:11:44.214Z,12484
2018-07-19T08:12:43.489Z,12144
2018-07-19T08:13:43.796Z,11488
2018-07-19T08:14:43.800Z,10548
2018-07-19T08:15:43.527Z,10204
2018-07-19T08:16:43.738Z,10388
2018-07-19T08:17:45.443Z,11284
2018-07-19T08:18:43.479Z,13300
2018-07-19T08:19:43.746Z,12996
2018-07-19T08:20:45.654Z,13032
2018-07-19T08:21:43.733Z,13096
2018-07-19T08:22:43.504Z,17120
2018-07-19T08:23:44.509Z,17824
2018-07-19T08:24:43.531Z,15488
2018-07-19T08:25:43.498Z,12888
2018-07-19T08:26:44.451Z,10812
2018-07-19T08:27:44.808Z,10084
2018-07-19T08:28:43.790Z,11616
2018-07-19T08:29:43.764Z,13524
2018-07-19T08:30:43.920Z,12520
2018-07-19T08:31:43.786Z,10968
2018-07-19T08:32:43.769Z,8928
2018-07-19T08:33:45.369Z,7988
2018-07-19T08:34:43.524Z,8252
2018-07-19T08:35:43.513Z,8196
2018-07-19T08:36:45.449Z,8152
2018-07-19T08:37:43.786Z,7364
2018-07-19T08:38:43.784Z,7288
2018-07-19T08:39:45.534Z,7480
2018-07-19T08:40:43.790Z,7720
2018-07-19T08:41:43.517Z,7004
2018-07-19T08:42:45.238Z,5756
2018-07-19T08:43:43.788Z,6452
2018-07-19T08:44:43.802Z,7152
2018-07-19T08:45:44.835Z,7036
2018-07-19T08:46:43.794Z,6668
2018-07-19T08:47:43.772Z,6352
2018-07-19T08:48:44.702Z,6104
2018-07-19T08:49:43.791Z,6284
2018-07-19T08:50:43.542Z,6204
2018-07-19T08:51:43.846Z,6052
2018-07-19T08:52:44.730Z,5728
2018-07-19T08:53:43.526Z,5536
2018-07-19T08:54:43.552Z,6084
2018-07-19T08:55:45.356Z,6288
2018-07-19T08:56:44.019Z,6540
2018-07-19T08:57:43.789Z,6644
2018-07-19T08:58:45.092Z,6748
2018-07-19T08:59:43.520Z,6900
2018-07-19T09:00:43.785Z,7236
2018-07-19T09:01:45.363Z,7440
2018-07-19T09:02:43.539Z,7352
2018-07-19T09:03:43.268Z,7048
2018-07-19T09:04:45.385Z,7596
2018-07-19T09:05:43.802Z,7704
2018-07-19T09:06:43.777Z,8352
2018-07-19T09:07:44.065Z,8656
2018-07-19T09:08:44.544Z,8500
2018-07-19T09:09:43.772Z,8572
2018-07-19T09:10:43.514Z,8816
2018-07-19T09:11:45.391Z,9220
2018-07-19T09:12:43.782Z,9324
2018-07-19T09:13:43.787Z,9048
2018-07-19T09:14:43.770Z,9384
2018-07-19T09:15:44.925Z,10060
2018-07-19T09:16:43.780Z,9912
2018-07-19T09:17:43.784Z,10644
2018-07-19T09:18:45.410Z,10876
2018-07-19T09:19:44.224Z,10012
2018-07-19T09:20:43.238Z,8896
2018-07-19T09:21:44.262Z,8012
2018-07-19T09:22:44.497Z,8280
2018-07-19T09:23:43.518Z,8236
2018-07-19T09:24:43.768Z,7988
2018-07-19T09:25:45.419Z,8128
2018-07-19T09:26:43.664Z,8084
2018-07-19T09:27:43.761Z,8256
2018-07-19T09:28:44.032Z,8808
2018-07-19T09:29:44.160Z,9112
2018-07-19T09:30:43.494Z,9248
2018-07-19T09:31:43.501Z,9532
2018-07-19T09:32:45.419Z,9156
2018-07-19T09:33:43.759Z,8824
2018-07-19T09:34:43.489Z,8456
2018-07-19T09:35:44.809Z,8136
2018-07-19T09:36:43.526Z,7816
2018-07-19T09:37:43.527Z,7572
2018-07-19T09:38:44.062Z,7576
2018-07-19T09:39:45.192Z,7644
2018-07-19T09:40:43.771Z,7796
2018-07-19T09:41:43.986Z,8216
2018-07-19T09:42:44.654Z,8892
2018-07-19T09:43:43.988Z,9216
2018-07-19T09:44:43.871Z,9412
2018-07-19T09:45:43.467Z,9884
2018-07-19T09:46:44.515Z,9904
2018-07-19T09:47:43.860Z,9788
2018-07-19T09:48:43.464Z,9636
2018-07-19T09:49:45.276Z,9568
2018-07-19T09:50:43.453Z,9476
2018-07-19T09:51:43.743Z,9476
2018-07-19T09:52:44.701Z,9572
2018-07-19T09:53:43.741Z,9800
2018-07-19T09:54:44.026Z,10004
2018-07-19T09:55:43.477Z,10264
2018-07-19T09:56:45.048Z,10528
2018-07-19T09:57:43.728Z,10612
2018-07-19T09:58:43.194Z,11000
2018-07-19T09:59:45.358Z,12016
2018-07-19T10:00:43.779Z,13184
2018-07-19T10:01:43.491Z,14164
2018-07-19T10:02:44.325Z,14960
2018-07-19T10:03:43.722Z,15412
2018-07-19T10:04:43.751Z,15776
2018-07-19T10:05:43.920Z,16192
2018-07-19T10:06:45.287Z,16480
2018-07-19T10:07:43.586Z,16704
2018-07-19T10:08:43.724Z,16832
2018-07-19T10:09:43.980Z,17216
2018-07-19T10:10:45.370Z,18112
2018-07-19T10:11:43.714Z,19232
2018-07-19T10:12:43.762Z,20192
2018-07-19T10:13:45.370Z,20896
2018-07-19T10:14:43.729Z,21248
2018-07-19T10:15:43.450Z,21024
2018-07-19T10:16:43.477Z,20160
2018-07-19T10:17:45.374Z,18464
2018-07-19T10:18:43.722Z,18208
2018-07-19T10:19:43.511Z,19456
2018-07-19T10:20:43.689Z,19584
2018-07-19T10:21:44.137Z,19328
2018-07-19T10:22:43.726Z,19328
2018-07-19T10:23:43.899Z,19808
2018-07-19T10:24:44.383Z,20288
2018-07-19T10:25:43.456Z,20672
2018-07-19T10:26:43.646Z,20992
2018-07-19T10:27:43.741Z,21088
2018-07-19T10:28:44.524Z,21024
2018-07-19T10:29:43.995Z,20704
2018-07-19T10:30:43.775Z,19936
2018-07-19T10:31:43.502Z,18976
2018-07-19T10:32:45.021Z,18336
2018-07-19T10:33:43.497Z,18208
2018-07-19T10:34:43.785Z,18240
2018-07-19T10:35:44.453Z,17984
2018-07-19T10:36:43.763Z,17440
2018-07-19T10:37:44.057Z,16928
2018-07-19T10:38:43.748Z,16672
2018-07-19T10:39:45.315Z,16576
2018-07-19T10:40:44.251Z,16480
2018-07-19T10:41:43.509Z,16320
2018-07-19T10:42:43.772Z,15824
2018-07-19T10:43:44.517Z,15216
2018-07-19T10:44:43.252Z,14644
2018-07-19T10:45:43.525Z,14232
2018-07-19T10:46:44.331Z,13884
2018-07-19T10:47:44.128Z,13552
2018-07-19T10:48:43.754Z,13268
2018-07-19T10:49:43.758Z,13040
2018-07-19T10:50:43.762Z,12996
2018-07-19T10:51:43.558Z,13164
2018-07-19T10:52:43.766Z,13324
2018-07-19T10:53:43.795Z,13456
2018-07-19T10:54:43.763Z,13488
2018-07-19T10:55:43.775Z,13376
2018-07-19T10:56:43.516Z,13252
2018-07-19T10:57:43.774Z,13076
2018-07-19T10:58:43.522Z,12872
2018-07-19T10:59:43.517Z,12800
2018-07-19T11:00:43.781Z,12784
2018-07-19T11:01:43.783Z,12792
2018-07-19T11:02:43.863Z,12796
2018-07-19T11:03:43.808Z,12724
2018-07-19T11:04:43.785Z,12732
2018-07-19T11:05:43.787Z,12844
2018-07-19T11:06:43.532Z,12916
2018-07-19T11:07:43.869Z,12948
2018-07-19T11:08:43.544Z,13028
2018-07-19T11:09:43.893Z,13004
2018-07-19T11:10:43.534Z,12912
2018-07-19T11:11:44.054Z,12828
2018-07-19T11:12:43.820Z,12800
2018-07-19T11:13:43.820Z,12868
2018-07-19T11:14:43.816Z,13096
2018-07-19T11:15:43.898Z,13384
2018-07-19T11:16:43.321Z,13896
2018-07-19T11:17:43.843Z,14576
2018-07-19T11:18:43.552Z,15268
2018-07-19T11:19:43.551Z,15476
2018-07-19T11:20:43.828Z,15276
2018-07-19T11:21:43.315Z,15064
2018-07-19T11:22:43.697Z,15072
2018-07-19T11:23:43.806Z,14696
2018-07-19T11:24:43.572Z,13944
2018-07-19T11:25:43.555Z,13228
2018-07-19T11:26:43.560Z,12740
2018-07-19T11:27:43.561Z,12424
2018-07-19T11:28:43.561Z,12296
2018-07-19T11:29:43.566Z,12068
2018-07-19T11:30:43.814Z,11996
2018-07-19T11:31:43.811Z,12232
2018-07-19T11:32:43.570Z,12752
2018-07-19T11:33:43.599Z,12964
2018-07-19T11:34:43.564Z,12724
2018-07-19T11:35:43.327Z,12580
2018-07-19T11:36:43.861Z,12372
2018-07-19T11:37:43.827Z,12260
2018-07-19T11:38:43.575Z,12240
2018-07-19T11:39:43.576Z,12256
2018-07-19T11:40:43.822Z,12312
2018-07-19T11:41:43.778Z,12308
2018-07-19T11:42:43.861Z,12016
2018-07-19T11:43:43.828Z,11560
2018-07-19T11:44:43.578Z,11160
2018-07-19T11:45:43.832Z,10872
2018-07-19T11:46:43.830Z,10692
2018-07-19T11:47:43.576Z,10528
2018-07-19T11:48:43.824Z,10088
2018-07-19T11:49:43.831Z,9772
2018-07-19T11:50:43.843Z,9816
2018-07-19T11:51:43.836Z,10052
2018-07-19T11:52:43.850Z,10136
2018-07-19T11:53:43.837Z,10552
2018-07-19T11:54:43.848Z,11208
2018-07-19T11:55:44.082Z,11392
2018-07-19T11:56:43.833Z,11192
2018-07-19T11:57:43.343Z,11052
2018-07-19T11:58:43.584Z,10752
2018-07-19T11:59:43.848Z,10100
2018-07-19T12:00:43.596Z,9284
2018-07-19T12:01:43.402Z,8600
2018-07-19T12:02:43.869Z,8104
2018-07-19T12:03:43.600Z,7628
2018-07-19T12:04:43.845Z,7292
2018-07-19T12:05:43.601Z,7140
2018-07-19T12:06:43.866Z,7080
2018-07-19T12:07:43.850Z,7044
2018-07-19T12:08:43.843Z,7024
2018-07-19T12:09:43.604Z,6992
2018-07-19T12:10:43.848Z,6948
2018-07-19T12:11:43.610Z,6896
2018-07-19T12:12:43.856Z,6896
2018-07-19T12:13:43.594Z,6948
2018-07-19T12:14:44.113Z,7032
2018-07-19T12:15:43.595Z,7236
2018-07-19T12:16:43.604Z,7632
2018-07-19T12:17:43.861Z,8144
2018-07-19T12:18:43.857Z,8552
2018-07-19T12:19:43.602Z,8700
2018-07-19T12:20:43.675Z,8796
2018-07-19T12:21:43.886Z,8932
2018-07-19T12:22:43.849Z,9136
2018-07-19T12:23:43.601Z,9576
2018-07-19T12:24:43.599Z,10396
2018-07-19T12:25:43.612Z,11688
2018-07-19T12:26:43.877Z,13320
2018-07-19T12:27:43.599Z,14692
2018-07-19T12:28:43.854Z,15640
2018-07-19T12:29:43.601Z,16352
2018-07-19T12:30:43.360Z,16448
2018-07-19T12:31:43.865Z,16160
2018-07-19T12:32:43.858Z,15636
2018-07-19T12:33:43.876Z,15404
2018-07-19T12:34:43.853Z,15152
2018-07-19T12:35:43.859Z,14928
2018-07-19T12:36:44.324Z,14572
2018-07-19T12:37:43.873Z,14352
2018-07-19T12:38:43.623Z,14440
2018-07-19T12:39:43.610Z,14660
2018-07-19T12:40:43.364Z,15164
2018-07-19T12:41:43.607Z,15588
2018-07-19T12:42:44.139Z,16032
2018-07-19T12:43:43.880Z,16256
2018-07-19T12:44:43.862Z,16320
2018-07-19T12:45:43.862Z,16448
2018-07-19T12:46:43.877Z,16832
2018-07-19T12:47:43.612Z,16960
2018-07-19T12:48:43.620Z,16416
2018-07-19T12:49:43.618Z,15516
2018-07-19T12:50:43.867Z,15040
2018-07-19T12:51:43.883Z,14992
2018-07-19T12:52:43.623Z,15512
2018-07-19T12:53:43.622Z,16384
2018-07-19T12:54:43.872Z,17088
2018-07-19T12:55:43.645Z,17408
2018-07-19T12:56:43.389Z,17760
2018-07-19T12:57:43.878Z,18656
2018-07-19T12:58:43.880Z,19456
2018-07-19T12:59:43.893Z,19424
2018-07-19T13:00:43.890Z,18624
2018-07-19T13:01:43.885Z,18144
2018-07-19T13:02:43.635Z,18080
2018-07-19T13:03:43.401Z,18112
2018-07-19T13:04:43.652Z,18080
2018-07-19T13:05:43.893Z,17696
2018-07-19T13:06:43.899Z,17184
2018-07-19T13:07:43.658Z,16640
2018-07-19T13:08:43.900Z,15760
2018-07-19T13:09:43.646Z,14820
2018-07-19T13:10:43.908Z,13920
2018-07-19T13:11:43.913Z,13240
2018-07-19T13:12:43.906Z,13012
2018-07-19T13:13:43.656Z,12984
2018-07-19T13:14:43.679Z,13168
2018-07-19T13:15:43.920Z,13360
2018-07-19T13:16:43.916Z,13464
2018-07-19T13:17:43.920Z,13720
2018-07-19T13:18:43.682Z,14056
2018-07-19T13:19:43.672Z,14212
2018-07-19T13:20:43.944Z,14204
2018-07-19T13:21:43.675Z,13956
2018-07-19T13:22:43.956Z,13588